createdAt,value
2018-03-26T00:00:32.110Z,60.1
2018-03-26T00:01:22.722Z,60.1
2018-03-26T00:02:12.927Z,60.1
2018-03-26T00:03:02.583Z,60
2018-03-26T00:03:52.341Z,60
2018-03-26T00:04:42.422Z,60
2018-03-26T00:05:32.762Z,60
2018-03-26T00:06:22.516Z,60
2018-03-26T00:07:13.422Z,59.9
2018-03-26T00:08:02.611Z,59.9
2018-03-26T00:08:53.084Z,59.9
2018-03-26T00:09:43.321Z,59.9
2018-03-26T00:10:32.751Z,59.9
2018-03-26T00:11:23.726Z,59.9
2018-03-26T00:12:13.489Z,59.9
2018-03-26T00:13:02.488Z,59.8
2018-03-26T00:13:53.600Z,59.8
2018-03-26T00:14:43.691Z,59.8
2018-03-26T00:15:33.443Z,59.8
2018-03-26T00:16:23.111Z,59.8
2018-03-26T00:17:13.839Z,59.8
2018-03-26T00:18:03.042Z,59.8
2018-03-26T00:18:53.427Z,59.8
2018-03-26T00:19:43.328Z,59.8
2018-03-26T00:20:33.221Z,59.8
2018-03-26T00:21:23.154Z,59.8
2018-03-26T00:22:13.986Z,59.7
2018-03-26T00:23:02.788Z,59.7
2018-03-26T00:23:54.101Z,59.7
2018-03-26T00:24:43.376Z,59.6
2018-03-26T00:25:34.028Z,59.6
2018-03-26T00:26:24.155Z,59.6
2018-03-26T00:27:13.251Z,59.6
2018-03-26T00:28:04.007Z,59.6
2018-03-26T00:28:53.958Z,59.6
2018-03-26T00:29:44.106Z,59.6
2018-03-26T00:30:34.540Z,59.6
2018-03-26T00:31:24.633Z,59.6
2018-03-26T00:32:14.576Z,59.6
2018-03-26T00:33:04.205Z,59.5
2018-03-26T00:33:54.992Z,59.5
2018-03-26T00:34:44.123Z,59.5
2018-03-26T00:35:34.633Z,59.5
2018-03-26T00:36:24.389Z,59.5
2018-03-26T00:37:14.640Z,59.4
2018-03-26T00:38:05.296Z,59.4
2018-03-26T00:38:54.840Z,59.4
2018-03-26T00:39:45.212Z,59.4
2018-03-26T00:40:34.282Z,59.4
2018-03-26T00:41:24.222Z,59.4
2018-03-26T00:42:14.972Z,59.4
2018-03-26T00:43:05.134Z,59.4
2018-03-26T00:43:54.604Z,59.4
2018-03-26T00:44:45.232Z,59.4
2018-03-26T00:45:35.495Z,59.3
2018-03-26T00:46:25.341Z,59.3
2018-03-26T00:47:15.589Z,59.3
2018-03-26T00:48:05.917Z,59.3
2018-03-26T00:48:56.247Z,59.3
2018-03-26T00:49:46.360Z,59.3
2018-03-26T00:50:36.112Z,59.3
2018-03-26T00:51:26.156Z,59.3
2018-03-26T00:52:16.498Z,59.2
2018-03-26T00:53:06.274Z,59.2
2018-03-26T00:53:56.299Z,59.2
2018-03-26T00:54:46.363Z,59.2
2018-03-26T00:55:36.426Z,59.1
2018-03-26T00:56:26.759Z,59.1
2018-03-26T00:57:16.528Z,59.1
2018-03-26T00:58:06.646Z,59.1
2018-03-26T00:58:56.941Z,59.1
2018-03-26T00:59:46.441Z,59.1
2018-03-26T01:00:36.504Z,59.1
2018-03-26T01:01:27.100Z,59.1
2018-03-26T01:02:16.867Z,59
2018-03-26T01:03:06.667Z,59.1
2018-03-26T01:03:56.997Z,59
2018-03-26T01:04:47.339Z,59
2018-03-26T01:05:37.159Z,59
2018-03-26T01:06:27.449Z,58.9
2018-03-26T01:07:17.541Z,58.9
2018-03-26T01:08:07.331Z,58.9
2018-03-26T01:08:57.066Z,58.9
2018-03-26T01:09:47.403Z,58.9
2018-03-26T01:10:37.762Z,58.9
2018-03-26T01:11:27.511Z,58.9
2018-03-26T01:12:17.572Z,58.9
2018-03-26T01:13:07.961Z,58.9
2018-03-26T01:13:57.963Z,58.9
2018-03-26T01:14:47.741Z,58.8
2018-03-26T01:15:37.506Z,58.8
2018-03-26T01:16:27.581Z,58.8
2018-03-26T01:17:18.200Z,58.8
2018-03-26T01:18:06.916Z,58.8
2018-03-26T01:18:57.185Z,58.8
2018-03-26T01:19:47.229Z,58.8
2018-03-26T01:20:37.880Z,58.8
2018-03-26T01:21:27.941Z,58.8
2018-03-26T01:22:17.785Z,58.8
2018-03-26T01:23:07.943Z,58.7
2018-03-26T01:23:57.908Z,58.7
2018-03-26T01:24:47.776Z,58.7
2018-03-26T01:25:38.255Z,58.7
2018-03-26T01:26:28.262Z,58.7
2018-03-26T01:27:17.463Z,58.6
2018-03-26T01:28:08.692Z,58.6
2018-03-26T01:28:57.960Z,58.6
2018-03-26T01:29:48.008Z,58.6
2018-03-26T01:30:38.283Z,58.6
2018-03-26T01:31:28.226Z,58.6
2018-03-26T01:34:48.270Z,58.5
2018-03-26T01:35:38.493Z,58.5
2018-03-26T01:36:28.460Z,58.5
2018-03-26T01:37:18.999Z,58.5
2018-03-26T01:38:08.379Z,58.4
2018-03-26T01:38:58.792Z,58.4
2018-03-26T01:39:49.161Z,58.4
2018-03-26T01:40:39.132Z,58.4
2018-03-26T01:41:29.297Z,58.4
2018-03-26T01:42:19.695Z,58.4
2018-03-26T01:43:09.437Z,58.4
2018-03-26T01:43:59.759Z,58.4
2018-03-26T01:44:49.225Z,58.4
2018-03-26T01:45:39.597Z,58.4
2018-03-26T01:46:29.157Z,58.4
2018-03-26T01:47:19.344Z,58.4
2018-03-26T01:48:09.787Z,58.4
2018-03-26T01:48:59.421Z,58.3
2018-03-26T01:49:49.659Z,58.3
2018-03-26T01:50:39.153Z,58.3
2018-03-26T01:51:28.894Z,58.3
2018-03-26T01:52:20.347Z,58.3
2018-03-26T01:53:09.413Z,58.3
2018-03-26T01:54:00.436Z,58.3
2018-03-26T01:54:49.627Z,58.3
2018-03-26T01:55:40.061Z,58.2
2018-03-26T01:56:30.750Z,58.2
2018-03-26T01:57:19.409Z,58.2
2018-03-26T01:58:10.257Z,58.2
2018-03-26T01:59:00.190Z,58.2
2018-03-26T01:59:50.549Z,58.1
2018-03-26T02:00:40.623Z,58.1
2018-03-26T02:01:30.725Z,58.1
2018-03-26T02:02:20.226Z,58.1
2018-03-26T02:03:10.873Z,58.1
2018-03-26T02:04:00.541Z,58.1
2018-03-26T02:04:50.197Z,58.1
2018-03-26T02:05:40.758Z,58.1
2018-03-26T02:06:30.917Z,58.1
2018-03-26T02:07:20.288Z,58.1
2018-03-26T02:08:10.641Z,58.1
2018-03-26T02:09:00.320Z,58
2018-03-26T02:09:50.761Z,58
2018-03-26T02:10:41.590Z,58
2018-03-26T02:11:31.382Z,58
2018-03-26T02:12:21.217Z,57.9
2018-03-26T02:13:10.780Z,58
2018-03-26T02:14:01.223Z,57.9
2018-03-26T02:14:51.158Z,57.9
2018-03-26T02:15:41.342Z,57.9
2018-03-26T02:16:30.790Z,57.9
2018-03-26T02:17:21.472Z,57.9
2018-03-26T02:18:10.910Z,57.9
2018-03-26T02:19:01.933Z,57.9
2018-03-26T02:19:50.935Z,57.9
2018-03-26T02:20:41.974Z,57.9
2018-03-26T02:21:31.734Z,57.8
2018-03-26T02:22:21.002Z,57.8
2018-03-26T02:23:11.457Z,57.8
2018-03-26T02:24:01.708Z,57.8
2018-03-26T02:24:51.180Z,57.8
2018-03-26T02:25:41.725Z,57.8
2018-03-26T02:30:41.686Z,57.7
2018-03-26T02:31:32.318Z,57.7
2018-03-26T02:32:22.563Z,57.7
2018-03-26T02:33:11.657Z,57.7
2018-03-26T02:34:01.900Z,57.7
2018-03-26T02:34:52.946Z,57.6
2018-03-26T02:35:42.024Z,57.6
2018-03-26T02:36:32.797Z,57.6
2018-03-26T02:37:22.038Z,57.6
2018-03-26T02:38:13.478Z,57.6
2018-03-26T02:39:02.762Z,57.6
2018-03-26T02:39:53.391Z,57.6
2018-03-26T02:40:42.893Z,57.6
2018-03-26T02:41:32.735Z,57.6
2018-03-26T02:42:23.264Z,57.6
2018-03-26T02:43:13.115Z,57.6
2018-03-26T02:44:03.291Z,57.5
2018-03-26T02:44:53.238Z,57.5
2018-03-26T02:45:43.386Z,57.5
2018-03-26T02:46:33.537Z,57.5
2018-03-26T02:47:23.601Z,57.5
2018-03-26T02:48:14.456Z,57.5
2018-03-26T02:49:03.212Z,57.4
2018-03-26T02:49:53.717Z,57.4
2018-03-26T02:50:44.301Z,57.4
2018-03-26T02:51:34.104Z,57.4
2018-03-26T02:52:23.866Z,57.4
2018-03-26T02:53:13.791Z,57.4
2018-03-26T02:54:03.974Z,57.4
2018-03-26T02:54:54.300Z,57.4
2018-03-26T02:55:44.067Z,57.4
2018-03-26T02:56:33.984Z,57.4
2018-03-26T02:57:24.298Z,57.4
2018-03-26T02:58:14.081Z,57.3
2018-03-26T02:59:04.630Z,57.3
2018-03-26T02:59:54.186Z,57.3
2018-03-26T03:00:44.225Z,57.3
2018-03-26T03:01:33.994Z,57.3
2018-03-26T03:02:25.125Z,57.3
2018-03-26T03:03:15.440Z,57.3
2018-03-26T03:04:05.228Z,57.3
2018-03-26T03:04:55.533Z,57.3
2018-03-26T03:05:45.646Z,57.3
2018-03-26T03:06:34.525Z,57.3
2018-03-26T03:07:25.438Z,57.3
2018-03-26T03:08:15.515Z,57.2
2018-03-26T03:09:05.830Z,57.2
2018-03-26T03:09:55.620Z,57.2
2018-03-26T03:10:45.949Z,57.2
2018-03-26T03:11:35.692Z,57.2
2018-03-26T03:12:25.792Z,57.1
2018-03-26T03:13:15.866Z,57.1
2018-03-26T03:14:06.173Z,57.1
2018-03-26T03:14:55.087Z,57.1
2018-03-26T03:15:46.288Z,57.1
2018-03-26T03:16:35.782Z,57.1
2018-03-26T03:17:26.388Z,57.1
2018-03-26T03:18:16.475Z,57.1
2018-03-26T03:19:06.020Z,57
2018-03-26T03:19:56.261Z,57
2018-03-26T03:20:46.334Z,56.9
2018-03-26T03:21:36.391Z,56.9
2018-03-26T03:22:26.718Z,56.9
2018-03-26T03:23:16.814Z,56.8
2018-03-26T03:24:06.551Z,56.8
2018-03-26T03:24:56.616Z,56.8
2018-03-26T03:25:46.496Z,56.8
2018-03-26T03:26:37.079Z,56.8
2018-03-26T03:27:26.535Z,56.8
2018-03-26T03:28:16.869Z,56.8
2018-03-26T03:29:06.463Z,56.8
2018-03-26T03:29:56.672Z,56.8
2018-03-26T03:30:46.274Z,56.8
2018-03-26T03:31:36.528Z,56.7
2018-03-26T03:32:25.707Z,56.7
2018-03-26T03:33:17.320Z,56.7
2018-03-26T03:34:06.523Z,56.7
2018-03-26T03:34:57.033Z,56.6
2018-03-26T03:35:47.666Z,56.7
2018-03-26T03:36:36.399Z,56.6
2018-03-26T03:37:27.008Z,56.6
2018-03-26T03:38:16.770Z,56.6
2018-03-26T03:39:07.027Z,56.6
2018-03-26T03:39:57.392Z,56.6
2018-03-26T03:40:47.047Z,56.6
2018-03-26T03:41:37.811Z,56.6
2018-03-26T03:42:27.340Z,56.6
2018-03-26T03:43:17.028Z,56.6
2018-03-26T03:44:06.978Z,56.6
2018-03-26T03:44:57.142Z,56.6
2018-03-26T03:45:46.421Z,56.5
2018-03-26T03:46:37.445Z,56.5
2018-03-26T03:47:27.672Z,56.5
2018-03-26T03:48:17.457Z,56.5
2018-03-26T03:49:07.605Z,56.5
2018-03-26T03:49:57.948Z,56.4
2018-03-26T03:50:48.706Z,56.4
2018-03-26T03:51:37.603Z,56.4
2018-03-26T03:52:28.033Z,56.4
2018-03-26T03:53:18.865Z,56.4
2018-03-26T03:54:08.413Z,56.4
2018-03-26T03:54:58.700Z,56.4
2018-03-26T03:55:48.549Z,56.4
2018-03-26T03:56:38.409Z,56.4
2018-03-26T03:57:28.080Z,56.4
2018-03-26T03:58:17.848Z,56.4
2018-03-26T03:59:08.156Z,56.3
2018-03-26T03:59:58.532Z,56.3
2018-03-26T04:00:48.029Z,56.3
2018-03-26T04:01:38.072Z,56.3
2018-03-26T04:02:28.715Z,56.3
2018-03-26T04:03:18.795Z,56.3
2018-03-26T04:04:08.744Z,56.3
2018-03-26T04:04:58.786Z,56.3
2018-03-26T04:05:48.834Z,56.3
2018-03-26T04:06:38.888Z,56.3
2018-03-26T04:07:28.553Z,56.3
2018-03-26T04:08:19.105Z,56.3
2018-03-26T04:09:09.176Z,56.2
2018-03-26T04:09:59.696Z,56.2
2018-03-26T04:10:48.581Z,56.2
2018-03-26T04:11:38.740Z,56.2
2018-03-26T04:12:29.923Z,56.2
2018-03-26T04:13:19.246Z,56.1
2018-03-26T04:14:09.298Z,56.1
2018-03-26T04:15:00.375Z,56.1
2018-03-26T04:15:49.261Z,56.1
2018-03-26T04:16:39.099Z,56.1
2018-03-26T04:17:29.626Z,56.1
2018-03-26T04:18:19.948Z,56.1
2018-03-26T04:19:10.062Z,56.1
2018-03-26T04:19:59.895Z,56
2018-03-26T04:20:49.865Z,55.9
2018-03-26T04:21:40.512Z,55.9
2018-03-26T04:22:30.294Z,55.9
2018-03-26T04:23:19.756Z,55.9
2018-03-26T04:24:09.979Z,55.9
2018-03-26T04:25:00.459Z,55.9
2018-03-26T04:25:50.357Z,55.9
2018-03-26T04:26:40.631Z,55.8
2018-03-26T04:28:20.738Z,55.8
2018-03-26T04:29:10.129Z,55.8
2018-03-26T04:29:59.697Z,55.8
2018-03-26T04:30:50.926Z,55.8
2018-03-26T04:31:40.471Z,55.8
2018-03-26T04:32:30.861Z,55.8
2018-03-26T04:33:21.019Z,55.7
2018-03-26T04:34:10.873Z,55.7
2018-03-26T04:35:01.140Z,55.7
2018-03-26T04:35:50.591Z,55.7
2018-03-26T04:36:41.118Z,55.7
2018-03-26T04:37:31.666Z,55.7
2018-03-26T04:38:21.359Z,55.6
2018-03-26T04:39:11.684Z,55.6
2018-03-26T04:40:01.283Z,55.6
2018-03-26T04:40:51.561Z,55.6
2018-03-26T04:41:40.900Z,55.6
2018-03-26T04:42:31.365Z,55.6
2018-03-26T04:43:21.198Z,55.6
2018-03-26T04:44:10.768Z,55.6
2018-03-26T04:45:00.642Z,55.6
2018-03-26T04:45:51.577Z,55.6
2018-03-26T04:46:41.318Z,55.5
2018-03-26T04:47:32.344Z,55.6
2018-03-26T04:48:22.018Z,55.5
2018-03-26T04:49:11.812Z,55.5
2018-03-26T04:50:01.653Z,55.5
2018-03-26T04:50:51.903Z,55.4
2018-03-26T04:51:41.464Z,55.4
2018-03-26T04:52:32.024Z,55.4
2018-03-26T04:53:21.955Z,55.4
2018-03-26T04:54:12.235Z,55.4
2018-03-26T04:55:02.295Z,55.4
2018-03-26T04:55:53.087Z,55.4
2018-03-26T04:56:42.305Z,55.4
2018-03-26T04:57:32.174Z,55.4
2018-03-26T04:58:22.401Z,55.4
2018-03-26T04:59:12.606Z,55.3
2018-03-26T05:00:02.634Z,55.3
2018-03-26T05:00:51.992Z,55.3
2018-03-26T05:01:42.939Z,55.3
2018-03-26T05:02:32.732Z,55.3
2018-03-26T05:03:22.768Z,55.3
2018-03-26T05:04:13.169Z,55.3
2018-03-26T05:05:02.668Z,55.3
2018-03-26T05:05:53.094Z,55.2
2018-03-26T05:06:43.294Z,55.2
2018-03-26T05:07:33.319Z,55.2
2018-03-26T05:08:22.913Z,55.2
2018-03-26T05:09:13.251Z,55.2
2018-03-26T05:10:03.004Z,55.2
2018-03-26T05:10:52.496Z,55.1
2018-03-26T05:11:43.136Z,55.1
2018-03-26T05:12:33.073Z,55.1
2018-03-26T05:13:23.622Z,55.1
2018-03-26T05:14:13.758Z,55.1
2018-03-26T05:15:03.873Z,55.1
2018-03-26T05:15:53.909Z,55.1
2018-03-26T05:16:43.169Z,55.1
2018-03-26T20:17:47.631Z,43.5
2018-03-26T20:18:37.193Z,43.5
2018-03-26T20:19:27.575Z,43.5
2018-03-26T20:20:17.562Z,43.5
2018-03-26T20:21:07.059Z,43.4
2018-03-26T20:21:57.691Z,43.4
2018-03-26T20:22:47.743Z,43.4
2018-03-26T20:23:37.521Z,43.4
2018-03-26T20:24:27.921Z,43.4
2018-03-26T20:25:17.624Z,43.4
2018-03-26T20:26:07.746Z,43.4
2018-03-26T20:26:58.059Z,43.4
2018-03-26T20:27:48.131Z,43.4
2018-03-26T20:28:38.137Z,43.4
2018-03-26T20:29:28.201Z,43.4
2018-03-26T20:30:18.251Z,43.4
2018-03-26T20:31:07.370Z,43.4
2018-03-26T20:31:57.263Z,43.4
2018-03-26T20:32:47.476Z,43.3
2018-03-26T20:33:37.941Z,43.3
2018-03-26T20:34:28.010Z,43.3
2018-03-26T20:35:17.894Z,43.3
2018-03-26T20:36:07.832Z,43.3
2018-03-26T20:36:58.171Z,43.3
2018-03-26T20:37:47.738Z,43.3
2018-03-26T20:38:38.268Z,43.3
2018-03-26T20:39:28.158Z,43.2
2018-03-26T20:40:18.674Z,43.2
2018-03-26T20:41:09.222Z,43.1
2018-03-26T20:41:59.120Z,43.2
2018-03-26T20:42:49.117Z,43.1
2018-03-26T20:43:39.225Z,43.1
2018-03-26T20:44:28.935Z,43.1
2018-03-26T20:45:19.292Z,43.1
2018-03-26T20:46:09.406Z,43.1
2018-03-26T20:46:59.143Z,43.1
2018-03-26T20:47:49.199Z,43.1
2018-03-26T20:48:39.241Z,43.1
2018-03-26T20:49:29.602Z,43.1
2018-03-26T20:50:19.102Z,43.1
2018-03-26T20:51:09.145Z,43.1
2018-03-26T20:51:59.841Z,43.1
2018-03-26T20:52:49.891Z,43.1
2018-03-26T20:53:39.664Z,43.1
2018-03-26T20:54:29.931Z,43.1
2018-03-26T20:55:19.720Z,43
2018-03-26T20:56:10.074Z,43
2018-03-26T20:57:00.093Z,43
2018-03-26T20:57:50.157Z,43
2018-03-26T20:58:39.979Z,43
2018-03-26T20:59:30.269Z,43
2018-03-26T21:00:20.054Z,43
2018-03-26T21:01:10.134Z,43
2018-03-26T21:02:00.472Z,42.9
2018-03-26T21:02:50.226Z,43
2018-03-26T21:03:40.549Z,42.9
2018-03-26T21:04:30.641Z,42.9
2018-03-26T21:05:20.683Z,42.9
2018-03-26T21:06:11.141Z,42.9
2018-03-26T21:07:00.816Z,42.9
2018-03-26T21:07:50.628Z,42.9
2018-03-26T21:08:41.017Z,42.9
2018-03-26T21:09:30.974Z,42.9
2018-03-26T21:10:20.202Z,42.9
2018-03-26T21:11:11.065Z,42.9
2018-03-26T21:12:01.184Z,42.9
2018-03-26T21:12:51.204Z,42.9
2018-03-26T21:13:41.263Z,42.9
2018-03-26T21:14:31.377Z,42.9
2018-03-26T21:15:21.361Z,42.8
2018-03-26T21:16:10.881Z,42.8
2018-03-26T21:17:01.496Z,42.8
2018-03-26T21:17:51.280Z,42.8
2018-03-26T21:18:40.769Z,42.8
2018-03-26T21:19:31.732Z,42.8
2018-03-26T21:20:21.441Z,42.8
2018-03-26T21:21:11.771Z,42.8
2018-03-26T21:22:01.276Z,42.8
2018-03-26T21:22:51.861Z,42.8
2018-03-26T21:23:41.404Z,42.8
2018-03-26T21:24:31.866Z,42.8
2018-03-26T21:25:21.791Z,42.8
2018-03-26T21:26:11.849Z,42.8
2018-03-26T21:27:01.608Z,42.8
2018-03-26T21:27:51.938Z,42.8
2018-03-26T21:28:42.320Z,42.7
2018-03-26T21:29:32.351Z,42.7
2018-03-26T21:30:22.118Z,42.7
2018-03-26T21:31:12.457Z,42.7
2018-03-26T21:32:02.501Z,42.7
2018-03-26T21:32:52.568Z,42.7
2018-03-26T21:33:42.631Z,42.7
2018-03-26T21:34:32.465Z,42.7
2018-03-26T21:35:22.460Z,42.7
2018-03-26T21:36:12.234Z,42.7
2018-03-26T21:37:02.841Z,42.6
2018-03-26T21:37:52.645Z,42.6
2018-03-26T21:38:42.692Z,42.6
2018-03-26T21:39:33.025Z,42.6
2018-03-26T21:40:22.532Z,42.6
2018-03-26T21:41:12.122Z,42.6
2018-03-26T21:42:02.677Z,42.6
2018-03-26T21:42:52.806Z,42.6
2018-03-26T21:43:42.506Z,42.6
2018-03-26T21:44:32.339Z,42.6
2018-03-26T21:45:22.981Z,42.6
2018-03-26T21:46:12.469Z,42.6
2018-03-26T21:47:02.911Z,42.6
2018-03-26T21:47:53.081Z,42.6
2018-03-26T21:48:42.833Z,42.5
2018-03-26T21:49:32.887Z,42.6
2018-03-26T21:50:22.447Z,42.5
2018-03-26T21:51:13.003Z,42.5
2018-03-26T21:52:03.640Z,42.5
2018-03-26T21:52:53.804Z,42.5
2018-03-26T21:53:42.998Z,42.5
2018-03-26T21:54:33.514Z,42.5
2018-03-26T21:55:22.969Z,42.5
2018-03-26T21:56:12.879Z,42.4
2018-03-26T21:57:03.274Z,42.4
2018-03-26T21:57:53.458Z,42.4
2018-03-26T21:58:43.317Z,42.4
2018-03-26T21:59:33.868Z,42.4
2018-03-26T22:00:23.344Z,42.4
2018-03-26T22:01:13.488Z,42.4
2018-03-26T22:02:03.851Z,42.4
2018-03-26T22:02:54.099Z,42.4
2018-03-26T22:03:43.363Z,42.4
2018-03-26T22:04:33.445Z,42.4
2018-03-26T22:05:24.591Z,42.4
2018-03-26T22:06:14.425Z,42.4
2018-03-26T22:07:03.610Z,42.4
2018-03-26T22:07:54.726Z,42.4
2018-03-26T22:08:44.493Z,42.4
2018-03-26T22:09:34.601Z,42.4
2018-03-26T22:10:24.146Z,42.4
2018-03-26T22:11:14.390Z,42.3
2018-03-26T22:12:04.356Z,42.3
2018-03-26T22:12:54.776Z,42.3
2018-03-26T22:13:44.666Z,42.3
2018-03-26T22:14:34.418Z,42.3
2018-03-26T22:15:24.679Z,42.3
2018-03-26T22:16:14.815Z,42.3
2018-03-26T22:17:04.522Z,42.3
2018-03-26T22:17:55.237Z,42.3
2018-03-26T22:18:44.617Z,42.3
2018-03-26T22:19:35.352Z,42.3
2018-03-26T22:20:25.116Z,42.3
2018-03-26T22:21:15.748Z,42.3
2018-03-26T22:22:05.151Z,42.3
2018-03-26T22:22:54.880Z,42.3
2018-03-26T22:23:45.243Z,42.3
2018-03-26T22:24:35.682Z,42.2
2018-03-26T22:25:25.384Z,42.2
2018-03-26T22:26:15.922Z,42.2
2018-03-26T22:27:05.658Z,42.2
2018-03-26T22:27:55.355Z,42.2
2018-03-26T22:28:45.880Z,42.2
2018-03-26T22:29:35.371Z,42.2
2018-03-26T22:30:25.618Z,42.1
2018-03-26T22:31:15.657Z,42.1
2018-03-26T22:32:05.949Z,42.1
2018-03-26T22:32:55.392Z,42.1
2018-03-26T22:33:46.122Z,42.1
2018-03-26T22:34:35.972Z,42.1
2018-03-26T22:35:26.075Z,42.1
2018-03-26T22:36:15.628Z,42.1
2018-03-26T22:37:06.051Z,42.1
2018-03-26T22:37:56.211Z,42.1
2018-03-26T22:38:45.689Z,42.1
2018-03-26T22:39:36.034Z,42.1
2018-03-26T22:40:26.376Z,42.1
2018-03-26T22:41:16.481Z,42.1
2018-03-26T22:42:07.380Z,42.1
2018-03-26T22:42:56.599Z,42.1
2018-03-26T22:43:46.997Z,42.1
2018-03-26T22:44:37.074Z,42
2018-03-26T22:45:26.507Z,42
2018-03-26T22:46:16.488Z,42
2018-03-26T22:47:06.886Z,42
2018-03-26T22:47:56.313Z,42
2018-03-26T22:48:47.384Z,42
2018-03-26T22:49:37.623Z,42
2018-03-26T22:50:27.407Z,42
2018-03-26T22:51:16.846Z,42
2018-03-26T22:52:07.479Z,42
2018-03-26T22:52:57.565Z,41.9
2018-03-26T22:53:47.208Z,41.9
2018-03-26T22:54:37.448Z,41.9
2018-03-26T22:55:27.311Z,41.9
2018-03-26T22:56:17.457Z,41.9
2018-03-26T22:57:07.553Z,41.9
2018-03-26T22:57:57.698Z,41.9
2018-03-26T22:58:47.975Z,41.9
2018-03-26T22:59:38.297Z,41.9
2018-03-26T23:00:28.055Z,41.9
2018-03-26T23:01:17.530Z,41.9
2018-03-26T23:02:07.699Z,41.9
2018-03-26T23:02:57.652Z,41.9
2018-03-26T23:03:48.069Z,41.9
2018-03-26T23:04:38.460Z,41.9
2018-03-26T23:05:27.741Z,41.8
2018-03-26T23:06:18.304Z,41.8
2018-03-26T23:07:08.522Z,41.8
2018-03-26T23:07:58.192Z,41.8
2018-03-26T23:08:48.145Z,41.8
2018-03-26T23:09:38.209Z,41.8
2018-03-26T23:10:29.084Z,41.8
2018-03-26T23:11:18.104Z,41.8
2018-03-26T23:12:08.557Z,41.8
2018-03-26T23:12:58.587Z,41.8
2018-03-26T23:13:48.986Z,41.8
2018-03-26T23:14:38.757Z,41.8
2018-03-26T23:15:29.388Z,41.8
2018-03-26T23:16:18.386Z,41.8
2018-03-26T23:17:08.947Z,41.8
2018-03-26T23:17:58.968Z,41.8
2018-03-26T23:18:49.314Z,41.7
2018-03-26T23:19:38.617Z,41.8
2018-03-26T23:20:29.536Z,41.7
2018-03-26T23:21:19.761Z,41.7
2018-03-26T23:22:09.005Z,41.7
2018-03-26T23:22:59.636Z,41.7
2018-03-26T23:23:49.673Z,41.7
2018-03-26T23:24:39.539Z,41.7
2018-03-26T23:25:28.727Z,41.7
2018-03-26T23:26:19.855Z,41.7
2018-03-26T23:27:09.617Z,41.7
2018-03-26T23:27:59.671Z,41.7
2018-03-26T23:28:49.446Z,41.6
2018-03-26T23:29:40.095Z,41.6
2018-03-26T23:30:29.644Z,41.6
2018-03-26T23:31:19.320Z,41.6
2018-03-26T23:32:09.853Z,41.6
2018-03-26T23:33:00.456Z,41.6
2018-03-26T23:33:49.745Z,41.6
2018-03-26T23:34:40.103Z,41.6
2018-03-26T23:35:30.080Z,41.6
2018-03-26T23:36:20.986Z,41.6
2018-03-26T23:37:10.393Z,41.6
2018-03-26T23:37:59.650Z,41.6
2018-03-26T23:38:50.178Z,41.6
2018-03-26T23:39:40.878Z,41.6
2018-03-26T23:40:30.564Z,41.6
2018-03-26T23:41:20.543Z,41.6
2018-03-26T23:42:10.557Z,41.6
2018-03-26T23:43:00.716Z,41.6
2018-03-26T23:43:50.288Z,41.5
2018-03-26T23:44:40.626Z,41.5
2018-03-26T23:45:30.595Z,41.5
2018-03-26T23:46:20.166Z,41.5
2018-03-26T23:47:11.117Z,41.5
2018-03-26T23:48:00.672Z,41.4
2018-03-26T23:48:51.110Z,41.4
2018-03-26T23:49:41.167Z,41.5
2018-03-26T23:50:31.252Z,41.4
2018-03-26T23:51:21.569Z,41.4
2018-03-26T23:52:11.225Z,41.4
2018-03-26T23:53:00.911Z,41.4
2018-03-26T23:53:51.559Z,41.4
2018-03-26T23:54:41.139Z,41.4
2018-03-26T23:55:31.268Z,41.4
2018-03-26T23:56:21.421Z,41.4
2018-03-26T23:57:12.020Z,41.4
2018-03-26T23:58:01.553Z,41.4
2018-03-26T23:58:51.902Z,41.4
2018-03-26T23:59:41.676Z,41.4
